Time;durP1;ratioP1;P1;durP2;ratioP2;P2;SDS_P1;SDS_P2;PMS_P1;PMS_P2;Temp;Humidity;BMP_temperature;BMP_pressure;BME280_temperature;BME280_humidity;BME280_pressure;Samples;Min_cycle;Max_cycle;Signal;HPM_P1;HPM_P2
2022/10/20 00:00:18;;;;;;;;;16.75;15.00;;;;;19.27;70.61;100472.94;4956834;28;46201;-84
2022/10/20 00:02:44;;;;;;;;;14.75;13.75;;;;;19.25;70.70;100477.59;4956888;28;45511;-84
2022/10/20 00:05:09;;;;;;;;;12.75;11.75;;;;;19.27;70.83;100486.22;4957061;28;45585;-84
2022/10/20 00:07:34;;;;;;;;;13.50;13.00;;;;;19.22;70.68;100477.91;4956827;28;47726;-82
2022/10/20 00:10:00;;;;;;;;;15.25;13.00;;;;;19.16;70.71;100467.16;4957030;28;46515;-84
2022/10/20 00:12:25;;;;;;;;;12.75;11.75;;;;;19.25;70.37;100469.63;4957098;28;45621;-82
2022/10/20 00:14:50;;;;;;;;;14.00;12.75;;;;;19.21;70.67;100464.81;4957438;28;45754;-84
2022/10/20 00:20:39;;;;;;;;;13.00;12.00;;;;;19.24;70.65;100467.13;4956915;28;45761;-84
2022/10/20 00:23:04;;;;;;;;;14.50;12.25;;;;;19.26;70.88;100467.81;4957088;28;45672;-82
2022/10/20 00:25:29;;;;;;;;;14.00;13.00;;;;;19.26;70.46;100467.81;4957245;28;45633;-84
2022/10/20 00:27:55;;;;;;;;;13.00;12.00;;;;;19.21;70.29;100457.69;4957153;28;46764;-83
2022/10/20 00:30:20;;;;;;;;;14.25;13.50;;;;;19.23;70.63;100455.69;4956615;28;47256;-84
2022/10/20 00:36:11;;;;;;;;;15.00;14.00;;;;;19.22;70.30;100455.84;4956454;28;45590;-84
2022/10/20 00:38:38;;;;;;;;;11.50;11.50;;;;;19.23;70.51;100454.84;4956482;28;49239;-85
2022/10/20 00:41:03;;;;;;;;;13.00;12.25;;;;;19.22;70.66;100461.97;4956446;28;45561;-83
2022/10/20 00:43:46;;;;;;;;;13.75;13.00;;;;;19.22;70.51;100453.19;4956677;28;45647;-80
2022/10/20 00:46:14;;;;;;;;;14.00;14.00;;;;;19.14;70.55;100446.06;4956568;28;46125;-85
2022/10/20 00:48:44;;;;;;;;;11.75;9.75;;;;;19.19;70.79;100448.22;4956775;28;45640;-85
2022/10/20 00:51:13;;;;;;;;;14.25;12.00;;;;;19.18;70.62;100446.56;4956469;28;46282;-84
2022/10/20 00:53:39;;;;;;;;;12.50;11.75;;;;;19.18;70.65;100441.25;4956614;28;45562;-84
2022/10/20 00:56:06;;;;;;;;;12.75;12.25;;;;;19.17;71.14;100442.22;4971427;28;45517;-83
2022/10/20 00:58:34;;;;;;;;;15.00;14.00;;;;;19.18;70.42;100447.38;4956496;28;46521;-81
2022/10/20 01:00:59;;;;;;;;;13.25;12.25;;;;;19.14;70.82;100443.41;4956166;28;46245;-84
2022/10/20 01:06:47;;;;;;;;;11.50;9.50;;;;;19.17;70.81;100432.44;4956366;28;45605;-82
2022/10/20 01:09:12;;;;;;;;;16.00;12.75;;;;;19.17;70.52;100431.59;4956443;28;45625;-85
2022/10/20 01:11:59;;;;;;;;;17.25;14.00;;;;;19.16;70.42;100440.59;4956140;28;46142;-85
2022/10/20 01:14:37;;;;;;;;;11.25;9.75;;;;;19.16;70.74;100437.94;4956079;28;45687;-80
2022/10/20 01:17:23;;;;;;;;;16.00;14.50;;;;;19.15;70.63;100438.94;4956381;28;45691;-85
2022/10/20 01:20:20;;;;;;;;;13.50;13.25;;;;;19.13;70.50;100447.06;4955746;28;47354;-84
2022/10/20 01:23:04;;;;;;;;;12.75;12.25;;;;;19.14;70.68;100445.25;4942299;28;47192;-83
2022/10/20 01:26:02;;;;;;;;;16.25;14.50;;;;;19.09;70.92;100432.47;4956177;28;45749;-84
2022/10/20 01:28:36;;;;;;;;;13.75;12.50;;;;;19.12;70.59;100445.41;4956174;28;45930;-83
2022/10/20 01:31:11;;;;;;;;;14.75;13.00;;;;;19.10;71.24;100457.19;4955917;28;46342;-83
2022/10/20 01:33:39;;;;;;;;;14.00;12.00;;;;;19.10;70.79;100465.16;4956045;28;46347;-83
2022/10/20 01:36:25;;;;;;;;;14.50;13.25;;;;;19.04;70.69;100453.38;4956245;28;45715;-83
2022/10/20 01:38:57;;;;;;;;;16.00;13.00;;;;;19.04;71.09;100445.41;4955829;28;45615;-84
2022/10/20 01:41:35;;;;;;;;;12.00;11.00;;;;;19.04;71.25;100453.38;4955802;28;46600;-84
2022/10/20 01:44:03;;;;;;;;;12.50;10.75;;;;;19.05;71.21;100468.34;4955723;28;46295;-83
2022/10/20 01:46:31;;;;;;;;;13.25;12.00;;;;;19.00;70.95;100488.41;4955628;28;45625;-83
2022/10/20 01:48:59;;;;;;;;;14.00;14.00;;;;;19.02;71.13;100502.34;4955643;28;45744;-84
2022/10/20 01:51:24;;;;;;;;;14.25;11.75;;;;;18.99;70.89;100494.72;4956006;28;45731;-85
2022/10/20 01:53:49;;;;;;;;;15.75;14.75;;;;;18.99;71.41;100497.38;4955715;28;45762;-84
2022/10/20 01:56:39;;;;;;;;;14.25;12.00;;;;;18.99;71.11;100513.31;4955023;28;45610;-85
2022/10/20 01:59:41;;;;;;;;;13.75;12.75;;;;;18.98;71.25;100501.00;4955118;28;45979;-80
2022/10/20 02:05:34;;;;;;;;;17.50;15.75;;;;;18.93;71.26;100467.00;4955187;28;46101;-84
2022/10/20 02:08:12;;;;;;;;;14.25;13.50;;;;;18.91;71.10;100450.41;4954021;28;45549;-85
2022/10/20 02:10:45;;;;;;;;;14.75;12.25;;;;;18.93;71.58;100439.63;4955649;28;45553;-84
2022/10/20 02:13:13;;;;;;;;;15.00;12.25;;;;;18.89;71.29;100430.34;4955496;28;45618;-84
2022/10/20 02:15:45;;;;;;;;;7.75;7.50;;;;;18.91;71.90;100438.94;4955369;28;47292;-84
2022/10/20 02:21:32;;;;;;;;;12.00;10.50;;;;;18.88;72.24;100404.78;4955161;28;45534;-85
2022/10/20 02:24:02;;;;;;;;;11.50;10.25;;;;;18.81;72.67;100386.84;4937247;28;47059;-84
2022/10/20 02:26:31;;;;;;;;;10.25;10.25;;;;;18.84;72.71;100393.66;4955399;28;46002;-84
2022/10/20 02:29:02;;;;;;;;;10.00;9.00;;;;;18.79;72.63;100374.72;4956139;28;45716;-82
2022/10/20 02:31:28;;;;;;;;;8.00;7.00;;;;;18.83;72.94;100378.75;4955366;28;45832;-83
2022/10/20 02:37:15;;;;;;;;;10.50;8.00;;;;;18.85;73.33;100353.66;4954777;28;45939;-83
2022/10/20 02:39:40;;;;;;;;;9.00;6.75;;;;;18.81;72.81;100301.09;4955400;28;45630;-83
2022/10/20 02:42:06;;;;;;;;;7.00;7.00;;;;;18.81;72.87;100306.38;4955197;28;45546;-84
2022/10/20 02:44:31;;;;;;;;;8.50;5.75;;;;;18.86;73.06;100306.72;4954548;28;45625;-84
2022/10/20 02:46:57;;;;;;;;;7.00;6.00;;;;;18.93;72.93;100320.13;4954684;28;46453;-84
2022/10/20 02:52:43;;;;;;;;;5.00;5.00;;;;;18.96;72.40;100320.63;4956361;28;45527;-82
2022/10/20 02:55:10;;;;;;;;;6.00;5.75;;;;;19.06;72.36;100342.50;4957131;28;47182;-81
2022/10/20 02:57:35;;;;;;;;;6.75;5.50;;;;;19.11;72.32;100337.50;4954502;28;47614;-84
2022/10/20 03:00:01;;;;;;;;;5.75;5.50;;;;;19.14;71.89;100346.97;4954941;28;45536;-82
2022/10/20 03:02:26;;;;;;;;;5.00;5.00;;;;;19.20;71.59;100354.25;4955335;28;45686;-82
2022/10/20 03:08:14;;;;;;;;;7.50;6.00;;;;;19.26;71.41;100361.53;4954800;28;45624;-83
2022/10/20 03:10:40;;;;;;;;;11.75;5.50;;;;;19.25;71.51;100357.22;4954528;28;45569;-82
2022/10/20 03:13:06;;;;;;;;;9.25;5.00;;;;;19.28;71.47;100354.22;4954839;28;45826;-80
2022/10/20 03:15:31;;;;;;;;;5.75;4.75;;;;;19.32;71.52;100355.56;4954645;28;47239;-83
2022/10/20 03:17:57;;;;;;;;;5.00;4.50;;;;;19.35;71.49;100351.72;4954458;28;46302;-79
2022/10/20 03:20:22;;;;;;;;;7.00;5.00;;;;;19.33;71.29;100341.25;4957463;28;45636;-82
2022/10/20 03:22:47;;;;;;;;;6.00;4.50;;;;;19.40;71.26;100336.06;4957993;28;45531;-81
2022/10/20 03:25:13;;;;;;;;;6.00;5.00;;;;;19.37;71.38;100331.13;4957923;28;46219;-80
2022/10/20 03:27:38;;;;;;;;;6.25;5.00;;;;;19.39;71.24;100347.69;4957589;28;45963;-80
2022/10/20 03:30:04;;;;;;;;;7.50;6.25;;;;;19.38;71.21;100338.91;4957556;28;45695;-81
2022/10/20 03:32:29;;;;;;;;;6.50;4.75;;;;;19.40;71.44;100365.31;4958193;28;45613;-77
2022/10/20 03:34:55;;;;;;;;;6.00;6.00;;;;;19.41;71.36;100362.47;4958071;28;47244;-76
2022/10/20 03:37:20;;;;;;;;;6.00;5.00;;;;;19.40;71.12;100358.16;4958654;28;46240;-81
2022/10/20 03:39:46;;;;;;;;;7.00;5.00;;;;;19.42;71.06;100361.50;4957964;28;45475;-80
2022/10/20 03:42:11;;;;;;;;;6.50;5.25;;;;;19.44;71.24;100370.09;4957960;28;45606;-82
2022/10/20 03:44:37;;;;;;;;;5.50;5.00;;;;;19.45;70.96;100377.09;4957624;28;45493;-78
2022/10/20 03:47:03;;;;;;;;;5.00;4.00;;;;;19.47;71.22;100395.53;4957128;28;45966;-84
2022/10/20 03:49:30;;;;;;;;;5.25;4.00;;;;;19.47;71.15;100401.69;4957308;28;45587;-76
2022/10/20 03:51:56;;;;;;;;;5.75;5.00;;;;;19.50;71.08;100401.34;4957259;28;45845;-83
2022/10/20 03:54:21;;;;;;;;;5.25;5.00;;;;;19.52;71.36;100395.84;4957096;28;47220;-82
2022/10/20 03:56:46;;;;;;;;;5.00;4.00;;;;;19.55;71.08;100392.84;4939796;28;47236;-80
2022/10/20 03:59:12;;;;;;;;;7.50;6.25;;;;;19.50;71.03;100396.03;4956443;28;45809;-81
2022/10/20 04:01:43;;;;;;;;;5.00;5.00;;;;;19.56;70.97;100413.94;4957213;28;45796;-76
2022/10/20 04:04:09;;;;;;;;;6.75;6.00;;;;;19.57;70.73;100412.94;4956984;28;46454;-81
2022/10/20 04:06:34;;;;;;;;;5.75;5.00;;;;;19.60;70.70;100393.97;4957223;28;46091;-81
2022/10/20 04:08:59;;;;;;;;;7.25;6.00;;;;;19.51;70.91;100372.94;4957258;28;45614;-80
2022/10/20 04:11:25;;;;;;;;;7.00;6.00;;;;;19.57;71.40;100367.75;4957195;28;45781;-81
2022/10/20 04:13:51;;;;;;;;;8.00;7.00;;;;;19.58;71.48;100352.66;4957051;28;46333;-80
2022/10/20 04:16:17;;;;;;;;;7.00;6.00;;;;;19.61;71.23;100354.94;4956804;28;45907;-80
2022/10/20 04:18:42;;;;;;;;;7.00;6.25;;;;;19.61;71.36;100355.78;4957002;28;45600;-80
2022/10/20 04:24:29;;;;;;;;;8.00;6.00;;;;;19.61;71.69;100362.91;4957011;28;45680;-80
2022/10/20 04:26:55;;;;;;;;;7.00;6.50;;;;;19.57;71.53;100348.31;4971699;28;46840;-82
2022/10/20 04:29:22;;;;;;;;;6.00;6.00;;;;;19.60;71.61;100347.97;4956341;28;45646;-80
2022/10/20 04:31:47;;;;;;;;;6.00;6.00;;;;;19.55;71.71;100347.66;4956383;28;45926;-76
2022/10/20 04:34:12;;;;;;;;;7.00;6.75;;;;;19.58;71.70;100368.59;4956319;28;46869;-74
2022/10/20 04:36:38;;;;;;;;;8.00;6.00;;;;;19.56;71.79;100384.72;4956089;28;46950;-74
2022/10/20 04:39:07;;;;;;;;;9.25;7.75;;;;;19.52;71.78;100387.88;4956181;28;45534;-73
2022/10/20 04:41:33;;;;;;;;;6.50;5.75;;;;;19.50;71.82;100380.06;4956410;28;45561;-74
2022/10/20 04:43:58;;;;;;;;;8.00;7.00;;;;;19.53;72.21;100373.59;4956172;28;46424;-75
2022/10/20 04:46:25;;;;;;;;;9.00;8.25;;;;;19.49;71.89;100364.28;4956549;28;45618;-75
2022/10/20 04:48:51;;;;;;;;;9.00;5.50;;;;;19.48;72.01;100370.63;4956488;28;45533;-76
2022/10/20 04:54:38;;;;;;;;;7.75;6.50;;;;;19.38;72.36;100343.41;4956045;28;45626;-79
2022/10/20 04:57:05;;;;;;;;;9.25;8.00;;;;;19.45;72.00;100355.00;4956163;28;45728;-78
2022/10/20 04:59:30;;;;;;;;;7.00;6.50;;;;;19.46;72.05;100352.19;4956435;28;45635;-77
2022/10/20 05:01:55;;;;;;;;;6.00;5.00;;;;;19.48;72.21;100363.50;4956439;28;45962;-78
2022/10/20 05:04:21;;;;;;;;;8.50;6.50;;;;;19.48;71.79;100366.16;4956405;28;45652;-79
2022/10/20 05:10:08;;;;;;;;;7.50;7.25;;;;;19.48;72.11;100379.44;4956178;28;45736;-80
2022/10/20 05:12:33;;;;;;;;;9.00;7.25;;;;;19.47;72.18;100391.06;4956496;28;45483;-82
2022/10/20 05:14:59;;;;;;;;;7.75;5.75;;;;;19.45;72.24;100387.75;4956424;28;46489;-75
2022/10/20 05:17:24;;;;;;;;;8.00;7.25;;;;;19.47;71.88;100400.84;4956631;28;45657;-77
2022/10/20 05:19:50;;;;;;;;;10.00;8.25;;;;;19.48;72.12;100382.09;4954297;28;46126;-75
2022/10/20 05:22:15;;;;;;;;;7.00;7.00;;;;;19.46;71.95;100377.94;4956111;28;45894;-76
2022/10/20 05:24:40;;;;;;;;;7.25;6.00;;;;;19.48;71.89;100399.88;4956338;28;46514;-76
2022/10/20 05:27:06;;;;;;;;;7.50;6.75;;;;;19.40;72.17;100392.72;4955581;28;46313;-76
2022/10/20 05:29:31;;;;;;;;;7.00;5.75;;;;;19.46;72.14;100396.53;4955646;28;45969;-74
2022/10/20 05:31:57;;;;;;;;;8.00;7.25;;;;;19.46;72.26;100405.34;4956244;28;45913;-77
2022/10/20 05:34:22;;;;;;;;;9.00;7.50;;;;;19.46;72.28;100404.50;4955847;28;45610;-80
2022/10/20 05:36:48;;;;;;;;;6.00;6.00;;;;;19.28;72.28;100381.63;4955676;28;46149;-79
2022/10/20 05:39:13;;;;;;;;;9.00;6.50;;;;;19.45;72.14;100406.34;4955638;28;45661;-76
2022/10/20 05:41:39;;;;;;;;;7.25;6.00;;;;;19.44;72.12;100407.28;4955436;28;45726;-75
2022/10/20 05:44:07;;;;;;;;;7.00;6.25;;;;;19.36;72.30;100395.88;4955199;28;46479;-77
2022/10/20 05:46:37;;;;;;;;;6.50;5.75;;;;;19.32;72.06;100392.75;4955270;28;47038;-76
2022/10/20 05:49:03;;;;;;;;;8.25;6.00;;;;;19.36;72.00;100391.41;4955337;28;45796;-77
2022/10/20 05:51:34;;;;;;;;;3.00;3.00;;;;;19.32;72.26;100382.13;4955548;28;45921;-73
2022/10/20 05:54:00;;;;;;;;;5.75;5.75;;;;;19.34;72.09;100384.59;4955233;28;47174;-75
2022/10/20 05:56:26;;;;;;;;;6.00;5.25;;;;;19.31;72.40;100388.44;4954839;28;45575;-74
2022/10/20 05:58:52;;;;;;;;;6.75;5.50;;;;;19.26;72.16;100378.31;4955006;28;45606;-75
2022/10/20 06:01:23;;;;;;;;;4.25;4.00;;;;;19.25;72.08;100374.00;4955373;28;45852;-74
2022/10/20 06:03:49;;;;;;;;;8.00;8.00;;;;;19.24;71.79;100358.22;4955428;28;45569;-76
2022/10/20 06:06:16;;;;;;;;;6.25;5.50;;;;;19.22;72.24;100353.06;4954772;28;47431;-74
2022/10/20 06:08:41;;;;;;;;;8.75;7.25;;;;;19.15;72.15;100322.06;4954960;28;45765;-73
2022/10/20 06:11:08;;;;;;;;;6.25;5.50;;;;;19.21;72.36;100303.63;4937785;28;45831;-73
2022/10/20 06:13:34;;;;;;;;;9.50;7.75;;;;;19.20;72.16;100280.72;4955314;28;46694;-76
2022/10/20 06:16:21;;;;;;;;;10.50;8.00;;;;;19.17;72.47;100257.13;4955055;28;46087;-73
2022/10/20 06:18:48;;;;;;;;;6.50;5.00;;;;;19.10;72.59;100261.50;4954667;28;45516;-73
2022/10/20 06:21:21;;;;;;;;;8.50;6.25;;;;;19.08;72.54;100257.34;4954793;28;45584;-74
2022/10/20 06:23:46;;;;;;;;;7.25;6.00;;;;;19.06;72.29;100260.16;4954977;28;45782;-76
2022/10/20 06:26:17;;;;;;;;;9.25;8.00;;;;;19.02;72.66;100242.94;4955118;28;46126;-72
2022/10/20 06:28:43;;;;;;;;;6.00;5.25;;;;;19.03;72.86;100255.22;4955080;28;45662;-72
2022/10/20 06:31:31;;;;;;;;;8.75;6.75;;;;;19.04;72.03;100253.41;4955084;28;45668;-79
2022/10/20 06:33:57;;;;;;;;;11.00;7.50;;;;;19.01;72.64;100257.19;4954326;28;46608;-76
2022/10/20 06:36:24;;;;;;;;;7.00;6.00;;;;;19.03;72.70;100254.38;4954477;28;46011;-73
2022/10/20 06:38:57;;;;;;;;;10.00;6.75;;;;;18.99;72.51;100251.25;4954469;28;45816;-75
2022/10/20 06:41:24;;;;;;;;;13.75;10.75;;;;;18.99;72.21;100245.94;4954223;28;45692;-72
2022/10/20 06:43:54;;;;;;;;;12.75;10.00;;;;;18.99;72.63;100253.91;4954062;28;46966;-77
2022/10/20 06:46:19;;;;;;;;;9.25;8.50;;;;;18.98;72.79;100262.88;4954042;28;45764;-71
2022/10/20 06:48:45;;;;;;;;;34.25;30.75;;;;;18.89;72.86;100269.22;4954764;28;45613;-74
2022/10/20 06:51:13;;;;;;;;;65.50;50.50;;;;;18.95;72.37;100289.75;4954731;28;45605;-75
2022/10/20 06:53:39;;;;;;;;;11.25;10.25;;;;;18.86;72.60;100288.97;4955684;28;47362;-73
2022/10/20 06:56:20;;;;;;;;;36.25;32.00;;;;;18.92;72.44;100314.00;4958298;28;46126;-72
2022/10/20 06:58:47;;;;;;;;;11.50;11.50;;;;;18.91;72.69;100324.78;4958263;28;45556;-73
2022/10/20 07:01:16;;;;;;;;;14.75;14.75;;;;;18.89;72.70;100343.56;4958290;28;45720;-73
2022/10/20 07:03:43;;;;;;;;;6.25;5.00;;;;;18.84;72.28;100349.34;4958060;28;46327;-73
2022/10/20 07:06:16;;;;;;;;;8.00;5.75;;;;;18.76;72.24;100343.22;4957924;28;47253;-73
2022/10/20 07:08:41;;;;;;;;;9.25;7.25;;;;;18.74;72.64;100364.63;4957986;28;45604;-72
2022/10/20 07:11:10;;;;;;;;;10.25;10.25;;;;;18.73;73.16;100372.78;4958173;28;45563;-76
2022/10/20 07:13:36;;;;;;;;;7.00;7.00;;;;;18.72;72.57;100369.28;4957891;28;45750;-75
2022/10/20 07:16:03;;;;;;;;;5.75;5.75;;;;;18.71;72.85;100380.91;4957430;28;47022;-76
2022/10/20 07:18:29;;;;;;;;;13.25;12.25;;;;;18.69;73.07;100379.38;4957091;28;45743;-77
2022/10/20 07:20:57;;;;;;;;;5.50;5.00;;;;;18.68;73.07;100381.22;4957588;28;45501;-74
2022/10/20 07:26:44;;;;;;;;;8.75;6.50;;;;;18.68;72.91;100388.34;4957364;28;45766;-72
2022/10/20 07:29:11;;;;;;;;;5.00;3.75;;;;;18.66;72.62;100374.44;4957570;28;45566;-71
2022/10/20 07:31:39;;;;;;;;;7.50;7.50;;;;;18.67;73.03;100390.19;4957537;28;45780;-74
2022/10/20 07:34:07;;;;;;;;;4.75;4.75;;;;;18.67;72.67;100382.25;4957670;28;45631;-72
2022/10/20 07:36:34;;;;;;;;;8.00;5.50;;;;;18.65;72.88;100378.06;4957453;28;46497;-76
2022/10/20 07:39:03;;;;;;;;;6.00;5.75;;;;;18.67;72.52;100387.53;4957537;28;45484;-76
2022/10/20 07:41:29;;;;;;;;;5.50;5.00;;;;;18.69;72.81;100390.84;4957656;28;45603;-77
2022/10/20 07:43:55;;;;;;;;;4.25;4.00;;;;;18.69;72.62;100382.03;4957057;28;45608;-76
2022/10/20 07:46:21;;;;;;;;;5.25;4.25;;;;;18.70;72.72;100379.22;4957332;28;45906;-74
2022/10/20 07:48:47;;;;;;;;;6.25;4.75;;;;;18.71;72.47;100383.56;4957289;28;45795;-73
2022/10/20 07:57:19;;;;;;;;;5.00;4.00;;;;;18.71;72.53;100385.38;4956750;28;45698;-76
2022/10/20 07:59:44;;;;;;;;;6.00;5.00;;;;;18.72;72.76;100371.94;4957154;28;45573;-74
2022/10/20 08:02:10;;;;;;;;;4.00;4.00;;;;;18.73;72.84;100378.09;4956915;28;45687;-76
2022/10/20 08:04:36;;;;;;;;;6.50;5.25;;;;;18.72;72.27;100363.16;4955790;28;46470;-72
2022/10/20 08:07:01;;;;;;;;;5.75;5.75;;;;;18.77;73.00;100377.59;4956680;28;46214;-71
2022/10/20 08:09:27;;;;;;;;;6.75;6.25;;;;;18.81;72.83;100380.72;4957192;28;45499;-75
2022/10/20 08:11:52;;;;;;;;;8.25;6.00;;;;;18.84;73.02;100377.72;4957068;28;45642;-73
2022/10/20 08:14:17;;;;;;;;;5.25;4.50;;;;;18.83;72.69;100370.78;4956786;28;46260;-73
2022/10/20 08:16:43;;;;;;;;;6.00;5.50;;;;;18.92;72.80;100369.75;4956401;28;47118;-77
2022/10/20 08:19:08;;;;;;;;;5.25;4.75;;;;;18.93;72.55;100362.63;4956365;28;45595;-72
2022/10/20 08:21:33;;;;;;;;;7.50;6.75;;;;;18.96;72.64;100359.63;4956774;28;45854;-74
2022/10/20 08:24:01;;;;;;;;;5.00;5.00;;;;;19.01;72.27;100366.06;4956497;28;45837;-72
2022/10/20 08:26:26;;;;;;;;;5.75;5.25;;;;;19.02;72.81;100372.22;4956906;28;46066;-75
2022/10/20 08:28:53;;;;;;;;;6.00;4.75;;;;;19.08;72.52;100383.00;4956987;28;45661;-78
2022/10/20 08:31:19;;;;;;;;;5.00;4.25;;;;;19.09;72.58;100374.03;4956842;28;45602;-77
2022/10/20 08:33:45;;;;;;;;;7.50;7.00;;;;;19.12;72.13;100376.34;4956381;28;46793;-77
2022/10/20 08:36:13;;;;;;;;;6.00;5.00;;;;;19.16;72.53;100382.16;4956561;28;46322;-76
2022/10/20 08:42:01;;;;;;;;;5.75;5.00;;;;;19.19;72.30;100382.66;4956810;28;45610;-75
2022/10/20 08:44:30;;;;;;;;;5.25;5.00;;;;;19.20;71.98;100376.34;4956284;28;47334;-76
2022/10/20 08:46:55;;;;;;;;;6.00;5.00;;;;;19.21;72.01;100383.31;4956340;28;46360;-75
2022/10/20 08:49:31;;;;;;;;;5.00;5.00;;;;;19.25;71.85;100397.91;4956683;28;45764;-77
2022/10/20 08:51:57;;;;;;;;;3.25;3.00;;;;;19.18;71.80;100377.50;4956600;28;45835;-76
2022/10/20 08:54:23;;;;;;;;;4.00;4.00;;;;;19.28;71.96;100388.75;4955010;28;47668;-75
2022/10/20 08:56:49;;;;;;;;;5.00;4.75;;;;;19.29;71.76;100377.97;4956247;28;46321;-77
2022/10/20 08:59:36;;;;;;;;;4.25;4.00;;;;;19.33;72.01;100383.75;4956542;28;45742;-75
2022/10/20 09:02:02;;;;;;;;;4.00;4.00;;;;;19.35;71.53;100391.56;4956325;28;45590;-75
2022/10/20 09:04:37;;;;;;;;;4.25;4.00;;;;;19.31;71.92;100387.59;4954877;28;45533;-76
2022/10/20 09:07:14;;;;;;;;;5.00;4.00;;;;;19.34;71.57;100397.88;4955736;28;47298;-76
2022/10/20 09:09:39;;;;;;;;;4.00;4.00;;;;;19.26;71.60;100391.59;4956334;28;45662;-73
2022/10/20 09:12:09;;;;;;;;;5.00;5.00;;;;;19.31;71.67;100401.72;4956391;28;45680;-73
2022/10/20 09:14:36;;;;;;;;;4.75;3.00;;;;;19.31;71.99;100399.06;4956138;28;45605;-75
2022/10/20 09:17:02;;;;;;;;;4.00;3.00;;;;;19.26;71.84;100386.28;4955188;28;46348;-76
2022/10/20 09:19:28;;;;;;;;;4.25;3.50;;;;;19.30;71.77;100392.06;4956043;28;45751;-76
2022/10/20 09:21:57;;;;;;;;;3.00;2.75;;;;;19.29;71.95;100391.25;4955330;28;46018;-78
2022/10/20 09:24:26;;;;;;;;;4.75;3.00;;;;;19.31;71.92;100392.91;4955842;28;46469;-79
2022/10/20 09:26:52;;;;;;;;;3.25;3.00;;;;;19.27;71.63;100376.50;4955479;28;47062;-78
2022/10/20 09:29:33;;;;;;;;;3.00;3.00;;;;;19.33;72.04;100389.06;4955705;28;45641;-78
2022/10/20 09:31:58;;;;;;;;;3.00;1.00;;;;;19.31;71.58;100384.94;4955802;28;45855;-78
2022/10/20 09:34:33;;;;;;;;;3.50;2.75;;;;;19.33;71.76;100378.44;4955503;28;46542;-78
2022/10/20 09:37:03;;;;;;;;;2.50;2.50;;;;;19.34;71.66;100376.63;4955560;28;46135;-79
2022/10/20 09:39:36;;;;;;;;;2.00;2.00;;;;;19.30;71.26;100362.84;4955987;28;45721;-77
2022/10/20 09:42:05;;;;;;;;;3.25;3.00;;;;;19.33;71.79;100373.13;4955981;28;45715;-77
2022/10/20 09:44:46;;;;;;;;;2.00;2.00;;;;;19.37;71.62;100369.16;4955075;28;46755;-71
2022/10/20 09:47:14;;;;;;;;;2.50;2.50;;;;;19.41;70.93;100372.28;4955436;28;47446;-71
2022/10/20 09:49:43;;;;;;;;;3.00;2.25;;;;;19.42;71.56;100377.44;4955818;28;45620;-73
2022/10/20 09:52:22;;;;;;;;;3.00;2.00;;;;;19.31;71.00;100353.88;4955364;28;45804;-75
2022/10/20 09:54:49;;;;;;;;;3.00;3.00;;;;;19.46;71.33;100375.28;4955038;28;47307;-72
2022/10/20 09:57:18;;;;;;;;;3.25;3.25;;;;;19.47;70.71;100384.91;4955469;28;45887;-72
2022/10/20 09:59:45;;;;;;;;;3.00;3.00;;;;;19.49;70.71;100382.91;4955394;28;45746;-73
2022/10/20 10:02:14;;;;;;;;;3.00;2.25;;;;;19.52;70.68;100372.78;4955719;28;45714;-72
2022/10/20 10:04:47;;;;;;;;;3.75;3.25;;;;;19.56;70.84;100386.53;4955097;28;46592;-73
2022/10/20 10:07:33;;;;;;;;;2.00;2.00;;;;;19.58;70.61;100374.75;4955339;28;46449;-75
2022/10/20 10:09:58;;;;;;;;;2.50;2.50;;;;;19.64;70.24;100375.88;4955260;28;45664;-73
2022/10/20 10:12:27;;;;;;;;;2.50;2.00;;;;;19.65;70.28;100365.06;4955352;28;45483;-75
2022/10/20 10:15:19;;;;;;;;;4.00;3.00;;;;;19.68;70.43;100374.53;4955309;28;45699;-74
2022/10/20 10:17:44;;;;;;;;;3.25;3.00;;;;;19.72;70.07;100362.53;4955298;28;45754;-72
2022/10/20 10:20:10;;;;;;;;;3.50;2.25;;;;;19.75;69.92;100375.50;4954761;28;45628;-73
2022/10/20 10:22:35;;;;;;;;;4.00;3.25;;;;;19.79;69.83;100371.47;4955252;28;45967;-75
2022/10/20 10:25:02;;;;;;;;;3.75;3.75;;;;;19.81;69.78;100360.69;4955223;28;46463;-74
2022/10/20 10:27:31;;;;;;;;;2.25;2.25;;;;;19.91;69.67;100359.47;4954520;28;46018;-75
2022/10/20 10:30:15;;;;;;;;;4.00;2.00;;;;;20.02;69.01;100366.22;4954957;28;45613;-76
2022/10/20 10:32:44;;;;;;;;;1.50;0.75;;;;;20.07;68.87;100350.53;4955189;28;45642;-77
2022/10/20 10:35:32;;;;;;;;;2.00;2.00;;;;;20.16;68.19;100356.63;4955192;28;45792;-77
2022/10/20 10:37:59;;;;;;;;;1.00;1.00;;;;;20.21;67.54;100352.44;4955350;28;46022;-76
2022/10/20 10:40:52;;;;;;;;;0.50;0.50;;;;;20.26;67.29;100355.38;4955086;28;45555;-76
2022/10/20 10:43:36;;;;;;;;;0.50;0.50;;;;;20.32;66.61;100346.72;4955010;28;45550;-77
2022/10/20 10:46:13;;;;;;;;;1.50;1.00;;;;;20.35;66.57;100340.22;4954602;28;47554;-77
2022/10/20 10:48:57;;;;;;;;;3.00;1.00;;;;;20.43;66.54;100346.31;4955006;28;46193;-78
2022/10/20 10:51:48;;;;;;;;;1.50;1.50;;;;;20.47;65.81;100331.63;4954606;28;45652;-76
2022/10/20 10:54:55;;;;;;;;;1.75;1.75;;;;;20.56;65.91;100335.06;4954996;28;45563;-74
2022/10/20 10:57:31;;;;;;;;;2.00;2.00;;;;;20.64;65.68;100331.47;4953140;28;48468;-78
2022/10/20 11:00:01;;;;;;;;;5.00;3.75;;;;;20.69;65.04;100332.59;4954809;28;45716;-80
2022/10/20 11:02:49;;;;;;;;;1.75;1.25;;;;;20.74;65.79;100332.03;4954633;28;45645;-73
2022/10/20 11:05:33;;;;;;;;;1.25;0.75;;;;;20.83;64.66;100330.97;4954506;28;45532;-76
2022/10/20 11:11:19;;;;;;;;;1.00;1.00;;;;;20.86;64.44;100315.44;4953984;28;45907;-75
2022/10/20 11:13:58;;;;;;;;;1.75;1.50;;;;;20.88;64.17;100312.59;4954580;28;45582;-74
2022/10/20 11:16:39;;;;;;;;;0.50;0.50;;;;;20.87;64.23;100306.44;4954556;28;45549;-77
2022/10/20 11:19:22;;;;;;;;;2.50;0.75;;;;;20.92;64.36;100303.25;4953857;28;47362;-76
2022/10/20 11:21:56;;;;;;;;;3.00;1.75;;;;;20.94;64.34;100298.56;4954146;28;45688;-75
2022/10/20 11:27:44;;;;;;;;;1.00;0.25;;;;;20.91;63.37;100297.09;4954167;28;45626;-76
2022/10/20 11:30:18;;;;;;;;;2.00;1.00;;;;;20.91;63.42;100283.75;4954128;28;46294;-75
2022/10/20 11:32:55;;;;;;;;;2.00;2.00;;;;;21.00;63.20;100286.34;4953751;28;47611;-75
2022/10/20 11:35:20;;;;;;;;;1.00;1.00;;;;;21.03;63.60;100288.63;4954226;28;45617;-73
2022/10/20 11:44:38;;;;;;;;;2.00;1.00;;;;;21.10;63.38;100268.25;4956928;28;45902;-72
2022/10/20 11:47:13;;;;;;;;;1.00;1.00;;;;;21.10;63.12;100269.06;4957455;28;45665;-74
2022/10/20 11:49:39;;;;;;;;;1.75;1.75;;;;;21.12;63.28;100256.38;4957544;28;45778;-73
2022/10/20 11:52:23;;;;;;;;;2.00;2.00;;;;;21.13;62.91;100251.88;4957204;28;46205;-74
2022/10/20 11:55:00;;;;;;;;;1.00;1.00;;;;;21.15;62.31;100247.22;4957001;28;46287;-73
2022/10/20 11:57:28;;;;;;;;;2.00;1.00;;;;;21.16;63.10;100246.22;4957074;28;45680;-73
2022/10/20 12:00:14;;;;;;;;;3.00;1.25;;;;;21.18;62.81;100242.34;4957164;28;45550;-75
2022/10/20 12:03:01;;;;;;;;;0.75;0.75;;;;;21.22;62.79;100240.13;4956755;28;47586;-74
2022/10/20 12:06:05;;;;;;;;;1.00;0.75;;;;;21.25;62.86;100242.44;4956607;28;47160;-75
2022/10/20 12:12:06;;;;;;;;;1.00;1.00;;;;;21.30;62.56;100218.69;4956879;28;45708;-75
2022/10/20 12:14:44;;;;;;;;;1.00;1.00;;;;;21.31;63.25;100223.84;4956624;28;46711;-71
2022/10/20 12:17:15;;;;;;;;;1.00;1.00;;;;;21.33;62.96;100220.97;4956393;28;46563;-77
2022/10/20 12:19:40;;;;;;;;;1.75;1.50;;;;;21.35;62.70;100221.63;4957086;28;45621;-74
2022/10/20 12:22:28;;;;;;;;;1.00;1.00;;;;;21.37;62.83;100219.63;4957001;28;45522;-72
2022/10/20 12:28:18;;;;;;;;;1.75;0.75;;;;;21.41;62.26;100207.56;4956474;28;45621;-76
2022/10/20 12:30:58;;;;;;;;;2.00;1.50;;;;;21.42;62.96;100209.22;4956169;28;45777;-74
2022/10/20 12:34:02;;;;;;;;;1.00;1.00;;;;;21.49;62.28;100202.09;4955162;28;45803;-72
2022/10/20 12:36:36;;;;;;;;;0.75;0.75;;;;;21.57;62.53;100204.66;4914937;28;46933;-72
2022/10/20 12:39:10;;;;;;;;;1.75;1.00;;;;;21.61;62.07;100200.56;4915236;28;47217;-76
2022/10/20 12:42:00;;;;;;;;;1.00;1.00;;;;;21.68;62.34;100208.66;4915378;28;45724;-74
2022/10/20 12:44:30;;;;;;;;;1.25;1.00;;;;;21.75;62.48;100194.34;4914669;28;45976;-75